Sampaio, Brazil
Current Conditions -  °F | °C
As of 11:00 AM on Monday 24 Nov 2014 (Local Time) from SBIZ Reporting Station
Few Clouds Few Clouds  
Wind Chill: 90°   Ceiling: Unl
Heat Index: 96°   Visibility: 6mi
Dew Point: 72°   Wind: 6mph
Humidity: 55%   Direction: 130°SE
Pressure: 29.91"   Gusts: NA
Location:  5.35°S, 47.87°W
Report Text: SBIZ 241400Z 13005KT 9999 FEW020 32/22 Q1013
Loading
Personal Weather Stations






























Interactive Weather Map New forecast layout! Learn more

10-Day Weather Forecast

Advertisements
Track Severe Weather on mobile